Time;durP1;ratioP1;P1;durP2;ratioP2;P2;SDS_P1;SDS_P2;PMS_P1;PMS_P2;Temp;Humidity;BMP_temperature;BMP_pressure;BME280_temperature;BME280_humidity;BME280_pressure;Samples;Min_cycle;Max_cycle;Signal;HPM_P1;HPM_P2
2024/01/31 00:01:56;;;;;;;0.30;0.30;;;;;;;6.32;100.00;100995.19;5043871;28;20552;-58
2024/01/31 00:04:25;;;;;;;0.30;0.30;;;;;;;6.32;99.68;101000.50;5043526;28;20048;-59
2024/01/31 00:06:52;;;;;;;0.40;0.40;;;;;;;6.41;96.50;100992.28;5044393;28;20422;-58
2024/01/31 00:09:19;;;;;;;0.30;0.30;;;;;;;6.45;95.24;100990.13;5044941;28;20041;-58
2024/01/31 00:11:46;;;;;;;0.35;0.35;;;;;;;6.43;94.46;100987.63;5044653;28;20041;-58
2024/01/31 00:14:16;;;;;;;0.20;0.20;;;;;;;6.43;94.59;100992.97;5024983;28;20140;-59
2024/01/31 00:16:44;;;;;;;0.30;0.30;;;;;;;6.49;93.28;100991.47;5043962;28;20606;-59
2024/01/31 00:19:11;;;;;;;0.40;0.40;;;;;;;6.43;93.23;100992.13;5041614;28;20149;-59
2024/01/31 00:21:41;;;;;;;0.30;0.30;;;;;;;6.43;93.49;100984.16;5026404;28;20129;-59
2024/01/31 00:24:09;;;;;;;0.30;0.30;;;;;;;6.46;91.50;100983.78;5043259;28;20146;-59
2024/01/31 00:26:37;;;;;;;0.25;0.25;;;;;;;6.41;91.70;100988.81;5040737;28;20827;-59
2024/01/31 00:29:05;;;;;;;0.35;0.35;;;;;;;6.43;91.02;100981.47;5040473;28;20041;-59
2024/01/31 00:31:33;;;;;;;0.30;0.30;;;;;;;6.42;90.29;100979.84;5038985;28;20042;-58
2024/01/31 00:34:00;;;;;;;0.40;0.40;;;;;;;6.36;91.55;100980.50;5042836;28;20507;-58
2024/01/31 00:36:27;;;;;;;0.30;0.30;;;;;;;6.28;92.69;100983.22;5039949;28;20136;-59
2024/01/31 00:38:56;;;;;;;0.32;0.32;;;;;;;6.16;94.89;100983.56;5047722;28;20425;-58
2024/01/31 00:41:23;;;;;;;0.40;0.40;;;;;;;6.09;95.30;100984.41;5046619;28;20044;-59
2024/01/31 00:43:53;;;;;;;0.30;0.30;;;;;;;5.89;96.90;100995.41;5038799;28;20507;-59
2024/01/31 00:46:21;;;;;;;0.30;0.30;;;;;;;5.74;97.09;100976.66;5024096;28;20155;-59
2024/01/31 00:48:48;;;;;;;0.40;0.40;;;;;;;5.72;95.92;100981.31;5026099;28;20430;-59
2024/01/31 00:51:16;;;;;;;0.40;0.40;;;;;;;5.71;94.27;100986.78;5024646;28;20041;-59
2024/01/31 00:53:44;;;;;;;0.30;0.30;;;;;;;5.70;92.74;100980.63;5043715;28;20052;-59
2024/01/31 00:56:13;;;;;;;0.30;0.30;;;;;;;5.69;92.89;100971.00;5042465;28;20045;-58
2024/01/31 00:58:40;;;;;;;0.40;0.40;;;;;;;5.63;93.28;100971.66;5041833;28;20052;-59
2024/01/31 01:01:07;;;;;;;0.35;0.35;;;;;;;5.54;92.90;100972.66;5048339;28;20056;-59
2024/01/31 01:03:34;;;;;;;0.30;0.30;;;;;;;5.43;93.16;100973.00;5044781;28;20194;-59
2024/01/31 01:06:01;;;;;;;0.30;0.30;;;;;;;5.34;93.98;100966.81;5025098;28;20466;-59
2024/01/31 01:08:32;;;;;;;0.30;0.30;;;;;;;5.32;93.75;100969.66;5024855;28;20040;-59
2024/01/31 01:11:04;;;;;;;0.40;0.40;;;;;;;5.11;95.62;100971.97;5044121;28;20052;-59
2024/01/31 01:13:32;;;;;;;0.40;0.40;;;;;;;5.04;96.89;100973.63;5021857;28;20049;-59
2024/01/31 01:16:00;;;;;;;0.45;0.45;;;;;;;5.05;96.79;100975.28;5043212;28;20049;-59
2024/01/31 01:18:27;;;;;;;0.40;0.40;;;;;;;5.04;96.82;100973.63;5009865;28;20523;-59
2024/01/31 01:20:54;;;;;;;0.40;0.40;;;;;;;5.12;96.28;100968.34;5043369;28;20045;-59
2024/01/31 01:23:21;;;;;;;0.32;0.32;;;;;;;5.20;96.52;100973.66;5021321;28;20496;-59
2024/01/31 01:25:49;;;;;;;0.40;0.40;;;;;;;5.31;95.54;100970.66;5041115;28;20043;-59
2024/01/31 01:28:16;;;;;;;0.30;0.30;;;;;;;5.37;94.34;100972.66;5042491;28;20076;-59
2024/01/31 01:30:52;;;;;;;0.40;0.40;;;;;;;5.51;93.53;100976.47;5025203;28;20045;-59
2024/01/31 01:33:19;;;;;;;0.40;0.40;;;;;;;5.54;96.63;100975.31;5021122;28;20126;-59
2024/01/31 01:35:47;;;;;;;0.40;0.40;;;;;;;5.46;94.18;100977.97;5043961;28;20045;-58
2024/01/31 01:38:15;;;;;;;0.40;0.40;;;;;;;5.50;97.17;100980.13;5021546;28;20064;-59
2024/01/31 01:40:44;;;;;;;0.35;0.35;;;;;;;5.63;93.01;100971.66;5023433;28;20045;-59
2024/01/31 01:43:18;;;;;;;0.40;0.40;;;;;;;5.63;94.72;100985.78;5039999;28;20499;-59
2024/01/31 01:45:47;;;;;;;0.50;0.50;;;;;;;5.67;92.84;100986.28;5024363;28;20056;-59
2024/01/31 01:48:15;;;;;;;0.30;0.30;;;;;;;5.69;93.29;100986.97;5034757;28;20314;-59
2024/01/31 01:50:43;;;;;;;0.38;0.38;;;;;;;5.69;93.91;100991.44;5021592;28;20057;-59
2024/01/31 01:53:11;;;;;;;0.40;0.40;;;;;;;5.63;94.80;100987.63;5025019;28;20156;-59
2024/01/31 01:55:39;;;;;;;0.40;0.40;;;;;;;5.51;95.18;100996.91;5023762;28;20132;-59
2024/01/31 01:58:07;;;;;;;0.32;0.32;;;;;;;5.53;96.81;100994.94;5042482;28;20045;-59
2024/01/31 02:00:34;;;;;;;0.40;0.40;;;;;;;5.33;97.14;100997.91;5041479;28;20045;-58
2024/01/31 02:03:06;;;;;;;0.40;0.40;;;;;;;5.41;96.90;100997.09;5042576;28;20113;-58
2024/01/31 02:05:33;;;;;;;0.30;0.30;;;;;;;5.45;97.28;101005.56;5023904;28;20049;-58
2024/01/31 02:08:03;;;;;;;0.40;0.40;;;;;;;5.49;97.87;101005.09;5024401;28;20823;-59
2024/01/31 02:10:30;;;;;;;0.52;0.52;;;;;;;5.65;99.38;101001.59;5023432;28;20056;-59
2024/01/31 02:12:58;;;;;;;0.40;0.40;;;;;;;5.64;93.88;100997.25;5024944;28;20256;-59
2024/01/31 02:15:25;;;;;;;0.40;0.40;;;;;;;5.66;94.96;101000.56;5041710;28;20359;-58
2024/01/31 02:17:52;;;;;;;0.40;0.40;;;;;;;5.68;92.69;101003.91;5042206;28;20037;-59
2024/01/31 02:20:22;;;;;;;0.40;0.40;;;;;;;5.85;95.49;101010.06;5042203;28;20045;-59
2024/01/31 02:22:50;;;;;;;0.40;0.40;;;;;;;5.89;97.88;101015.84;5041725;28;20042;-59
2024/01/31 02:25:17;;;;;;;0.32;0.32;;;;;;;5.83;97.19;101014.69;5041109;28;20190;-59
2024/01/31 02:27:45;;;;;;;0.35;0.35;;;;;;;5.86;98.02;101013.53;5020441;28;20396;-59
2024/01/31 02:30:13;;;;;;;0.35;0.35;;;;;;;5.91;98.59;101012.03;5046627;28;20044;-59
2024/01/31 02:32:40;;;;;;;0.40;0.40;;;;;;;5.81;100.00;101006.88;5044601;28;20048;-59
2024/01/31 02:35:08;;;;;;;0.40;0.40;;;;;;;5.83;100.00;101018.19;5019581;28;20102;-58
2024/01/31 02:37:35;;;;;;;0.30;0.30;;;;;;;5.78;100.00;101012.53;5036100;28;20037;-58
2024/01/31 02:40:04;;;;;;;0.43;0.43;;;;;;;5.76;100.00;101017.19;5043435;28;20588;-59
2024/01/31 02:42:33;;;;;;;0.40;0.40;;;;;;;5.86;100.00;101011.69;5024246;28;20041;-58
2024/01/31 02:45:00;;;;;;;0.43;0.43;;;;;;;5.81;100.00;101020.19;5020140;28;20458;-59
2024/01/31 02:47:27;;;;;;;0.40;0.40;;;;;;;5.80;100.00;101015.88;5040996;28;20634;-59
2024/01/31 02:49:57;;;;;;;0.30;0.30;;;;;;;5.85;100.00;101026.00;5040905;28;20587;-59
2024/01/31 02:52:24;;;;;;;0.45;0.45;;;;;;;5.80;100.00;101017.72;5035985;28;20045;-59
2024/01/31 02:54:51;;;;;;;0.50;0.50;;;;;;;5.91;100.00;101013.88;5023922;28;20045;-59
2024/01/31 02:57:19;;;;;;;0.30;0.30;;;;;;;5.82;100.00;101019.19;5039622;28;20132;-59
2024/01/31 02:59:47;;;;;;;0.40;0.40;;;;;;;5.77;100.00;101013.56;5038544;28;20098;-59
2024/01/31 03:02:15;;;;;;;0.40;0.40;;;;;;;5.79;100.00;101018.69;5041364;28;20513;-59
2024/01/31 03:04:43;;;;;;;0.30;0.30;;;;;;;5.84;100.00;101021.69;5044305;28;20044;-59
2024/01/31 03:07:11;;;;;;;0.50;0.50;;;;;;;5.86;100.00;101019.69;5039817;28;20367;-59
2024/01/31 03:09:39;;;;;;;0.40;0.40;;;;;;;5.87;100.00;101016.03;5038212;28;20052;-59
2024/01/31 03:12:07;;;;;;;0.40;0.40;;;;;;;5.90;100.00;101020.19;5041653;28;20045;-58
2024/01/31 03:14:35;;;;;;;0.30;0.30;;;;;;;5.82;100.00;101021.88;5043080;28;20055;-57
2024/01/31 03:17:02;;;;;;;0.40;0.40;;;;;;;5.88;100.00;101011.53;5040072;28;20099;-58
2024/01/31 03:19:30;;;;;;;0.30;0.30;;;;;;;5.78;100.00;101017.03;5044829;28;20454;-58
2024/01/31 03:21:57;;;;;;;0.20;0.20;;;;;;;5.78;100.00;101020.53;5043999;28;20132;-58
2024/01/31 03:24:24;;;;;;;0.43;0.43;;;;;;;5.82;100.00;101027.19;5025889;28;20918;-58
2024/01/31 03:26:52;;;;;;;0.50;0.50;;;;;;;5.71;100.00;101024.84;5043901;28;20040;-58
2024/01/31 03:29:19;;;;;;;0.25;0.25;;;;;;;5.84;100.00;101030.50;5044371;28;20094;-58
2024/01/31 03:31:48;;;;;;;0.38;0.38;;;;;;;5.75;100.00;101020.03;5040339;28;20051;-58
2024/01/31 03:34:15;;;;;;;0.30;0.30;;;;;;;5.61;100.00;101026.84;5044924;28;20041;-58
2024/01/31 03:36:42;;;;;;;0.40;0.40;;;;;;;5.62;100.00;101024.03;5026539;28;20041;-58
2024/01/31 03:39:10;;;;;;;0.40;0.40;;;;;;;5.59;100.00;101032.34;5044274;28;20049;-58
2024/01/31 03:41:44;;;;;;;0.30;0.30;;;;;;;5.68;100.00;101032.34;5043423;28;20772;-58
2024/01/31 03:44:13;;;;;;;0.40;0.40;;;;;;;5.53;100.00;101038.31;5024990;28;20053;-58
2024/01/31 03:46:40;;;;;;;0.38;0.38;;;;;;;5.56;100.00;101037.16;5041739;28;20250;-58
2024/01/31 03:49:08;;;;;;;0.40;0.40;;;;;;;5.60;100.00;101038.50;5027541;28;20048;-58
2024/01/31 03:51:36;;;;;;;0.40;0.40;;;;;;;5.59;100.00;101036.81;5044181;28;20044;-58
2024/01/31 03:54:03;;;;;;;0.30;0.30;;;;;;;5.53;100.00;101042.81;5042702;28;20045;-58
2024/01/31 03:56:30;;;;;;;0.40;0.40;;;;;;;5.56;100.00;101043.28;5044589;28;20049;-58
2024/01/31 03:58:58;;;;;;;0.40;0.40;;;;;;;5.58;100.00;101046.63;5023478;28;20115;-58
2024/01/31 04:01:25;;;;;;;0.35;0.35;;;;;;;5.51;100.00;101042.97;5044830;28;20045;-58
2024/01/31 04:03:56;;;;;;;0.30;0.30;;;;;;;5.51;100.00;101037.66;5044393;28;20537;-58
2024/01/31 04:06:27;;;;;;;0.40;0.40;;;;;;;5.44;100.00;101035.81;5044121;28;20053;-58
2024/01/31 04:08:54;;;;;;;0.40;0.40;;;;;;;5.46;100.00;101036.47;5026172;28;20044;-58
2024/01/31 04:11:21;;;;;;;0.40;0.40;;;;;;;5.40;100.00;101036.16;5042909;28;20041;-58
2024/01/31 04:13:55;;;;;;;0.40;0.40;;;;;;;5.39;100.00;101030.97;5043379;28;20037;-58
2024/01/31 04:16:23;;;;;;;0.30;0.30;;;;;;;5.45;100.00;101030.34;5043615;28;20048;-59
2024/01/31 04:18:51;;;;;;;0.40;0.40;;;;;;;5.45;100.00;101040.16;5006517;28;20037;-58
2024/01/31 04:21:20;;;;;;;0.38;0.38;;;;;;;5.48;100.00;101040.63;5043636;28;20561;-58
2024/01/31 04:23:49;;;;;;;0.30;0.30;;;;;;;5.51;100.00;101050.13;5038935;28;20381;-58
2024/01/31 04:26:17;;;;;;;0.40;0.40;;;;;;;5.49;100.00;101046.78;5040544;28;20377;-58
2024/01/31 04:28:47;;;;;;;0.35;0.35;;;;;;;5.47;100.00;101038.16;5040236;28;20044;-58
2024/01/31 04:31:15;;;;;;;0.40;0.40;;;;;;;5.49;100.00;101041.47;5042023;28;20053;-58
2024/01/31 04:33:42;;;;;;;0.40;0.40;;;;;;;5.47;100.00;101043.47;5042049;28;20044;-58
2024/01/31 04:36:10;;;;;;;0.40;0.40;;;;;;;5.35;100.00;101045.63;5023803;28;20056;-58
2024/01/31 04:38:37;;;;;;;0.30;0.30;;;;;;;5.26;100.00;101041.28;5042412;28;20466;-58
2024/01/31 04:41:09;;;;;;;0.30;0.30;;;;;;;5.53;100.00;101037.50;5044648;28;20515;-58
2024/01/31 04:43:36;;;;;;;0.40;0.40;;;;;;;5.37;100.00;101036.47;5036838;28;20857;-58
2024/01/31 04:46:03;;;;;;;0.30;0.30;;;;;;;5.19;100.00;101036.63;5021849;28;20123;-58
2024/01/31 04:48:31;;;;;;;0.30;0.30;;;;;;;5.15;100.00;101029.97;5041347;28;20048;-58
2024/01/31 04:50:58;;;;;;;0.35;0.35;;;;;;;5.13;100.00;101031.94;5042289;28;20420;-58
2024/01/31 04:53:25;;;;;;;0.40;0.40;;;;;;;5.27;100.00;101033.16;5042307;28;20052;-58
2024/01/31 04:55:56;;;;;;;0.40;0.40;;;;;;;5.46;100.00;101031.16;5047574;28;20506;-58
2024/01/31 04:58:24;;;;;;;0.35;0.35;;;;;;;5.29;100.00;101030.31;5040841;28;20052;-58
2024/01/31 05:00:52;;;;;;;0.40;0.40;;;;;;;5.20;100.00;101029.47;5021848;28;20079;-58
2024/01/31 05:03:19;;;;;;;0.30;0.30;;;;;;;5.22;100.00;101027.50;5024647;28;20080;-58
2024/01/31 05:05:46;;;;;;;0.40;0.40;;;;;;;5.36;100.00;101026.81;5042543;28;20520;-58
2024/01/31 05:08:14;;;;;;;0.40;0.40;;;;;;;5.34;100.00;101017.34;5043159;28;20044;-58
2024/01/31 05:10:44;;;;;;;0.30;0.30;;;;;;;5.17;100.00;101013.84;5042962;28;20045;-58
2024/01/31 05:13:12;;;;;;;0.40;0.40;;;;;;;5.26;100.00;101004.88;5023601;28;20064;-58
2024/01/31 05:15:41;;;;;;;0.30;0.30;;;;;;;5.34;100.00;101007.56;5042362;28;20110;-60
2024/01/31 05:18:08;;;;;;;0.40;0.40;;;;;;;5.26;100.00;101006.72;5042204;28;20608;-60
2024/01/31 05:20:35;;;;;;;0.45;0.45;;;;;;;5.30;100.00;101000.91;5043740;28;20514;-60
2024/01/31 05:23:03;;;;;;;0.40;0.40;;;;;;;5.22;100.00;100989.41;5038598;28;20056;-57
2024/01/31 05:25:30;;;;;;;0.40;0.40;;;;;;;5.06;100.00;100992.88;5040510;28;20052;-57
2024/01/31 05:27:57;;;;;;;0.30;0.30;;;;;;;5.10;100.00;100995.06;5040384;28;20057;-60
2024/01/31 05:30:24;;;;;;;0.40;0.40;;;;;;;5.29;100.00;100991.28;5040448;28;20041;-60
2024/01/31 05:32:53;;;;;;;0.30;0.30;;;;;;;5.34;100.00;100986.28;5042336;28;20124;-59
2024/01/31 05:35:22;;;;;;;0.40;0.40;;;;;;;5.37;100.00;100987.78;5040634;28;20045;-59
2024/01/31 05:37:49;;;;;;;0.40;0.40;;;;;;;5.41;100.00;100991.75;5042186;28;20046;-59
2024/01/31 05:40:18;;;;;;;0.40;0.40;;;;;;;5.37;100.00;100999.25;5043765;28;20085;-59
2024/01/31 05:42:45;;;;;;;0.30;0.30;;;;;;;5.44;100.00;100995.91;5042073;28;20053;-59
2024/01/31 05:45:12;;;;;;;0.40;0.40;;;;;;;5.33;100.00;101005.88;5037864;28;20053;-59
2024/01/31 05:47:39;;;;;;;0.30;0.30;;;;;;;5.32;100.00;101006.91;5042498;28;20467;-59
2024/01/31 05:50:09;;;;;;;0.38;0.38;;;;;;;5.40;100.00;101012.22;5019923;28;20496;-59
2024/01/31 05:52:36;;;;;;;0.40;0.40;;;;;;;5.42;100.00;101012.06;5038514;28;20180;-59
2024/01/31 05:55:05;;;;;;;0.40;0.40;;;;;;;5.43;100.00;101013.72;5023811;28;20057;-59
2024/01/31 05:57:33;;;;;;;0.30;0.30;;;;;;;5.28;100.00;101018.84;5038983;28;20049;-59
2024/01/31 06:00:02;;;;;;;0.43;0.43;;;;;;;5.13;100.00;101020.47;5042029;28;20123;-59
2024/01/31 06:02:38;;;;;;;0.40;0.40;;;;;;;4.90;100.00;101021.09;5042026;28;21787;-59
2024/01/31 06:05:08;;;;;;;0.30;0.30;;;;;;;5.10;100.00;101016.31;5024224;28;20052;-59
2024/01/31 06:07:35;;;;;;;0.50;0.50;;;;;;;5.19;100.00;101017.16;5041398;28;20044;-59
2024/01/31 06:10:03;;;;;;;0.30;0.30;;;;;;;5.25;100.00;101024.50;5041423;28;20059;-59
2024/01/31 06:12:30;;;;;;;0.40;0.40;;;;;;;5.28;100.00;101029.47;5041614;28;20052;-59
2024/01/31 06:14:57;;;;;;;0.30;0.30;;;;;;;5.25;100.00;101034.31;5042184;28;20434;-59
2024/01/31 06:17:24;;;;;;;0.40;0.40;;;;;;;5.17;100.00;101029.81;5037312;28;20440;-59
2024/01/31 06:19:52;;;;;;;0.40;0.40;;;;;;;5.13;100.00;101025.81;5035248;28;20351;-59
2024/01/31 06:22:21;;;;;;;0.47;0.47;;;;;;;5.31;100.00;101018.50;5040854;28;20516;-59
2024/01/31 06:24:51;;;;;;;0.45;0.45;;;;;;;5.39;100.00;101028.31;5039217;28;20127;-60
2024/01/31 06:27:18;;;;;;;0.50;0.50;;;;;;;5.48;100.00;101022.03;5042117;28;20059;-59
2024/01/31 06:29:48;;;;;;;0.40;0.40;;;;;;;5.48;100.00;101018.53;5035616;28;20037;-60
2024/01/31 06:32:21;;;;;;;0.40;0.40;;;;;;;5.43;100.00;101020.84;5040304;28;20055;-58
2024/01/31 06:34:52;;;;;;;0.35;0.35;;;;;;;5.31;100.00;101015.84;5039972;28;20692;-59
2024/01/31 06:37:21;;;;;;;0.30;0.30;;;;;;;5.45;100.00;101024.19;5039775;28;20567;-58
2024/01/31 06:39:49;;;;;;;0.40;0.40;;;;;;;5.43;100.00;101026.19;5040212;28;20045;-59
2024/01/31 06:42:16;;;;;;;0.30;0.30;;;;;;;5.24;100.00;101030.81;5004391;28;20049;-59
2024/01/31 06:44:43;;;;;;;0.40;0.40;;;;;;;5.31;100.00;101029.13;5039307;28;20072;-59
2024/01/31 06:47:11;;;;;;;0.40;0.40;;;;;;;5.23;100.00;101026.47;5040787;28;20048;-59
2024/01/31 06:49:38;;;;;;;0.40;0.40;;;;;;;5.28;100.00;101044.59;5026839;28;20044;-58
2024/01/31 06:52:06;;;;;;;0.40;0.40;;;;;;;5.21;100.00;101035.63;5045971;28;20052;-59
2024/01/31 06:54:35;;;;;;;0.40;0.40;;;;;;;5.28;100.00;101039.28;5045249;28;20664;-60
2024/01/31 06:57:02;;;;;;;0.38;0.38;;;;;;;5.27;100.00;101030.50;5044828;28;20060;-61
2024/01/31 06:59:29;;;;;;;0.55;0.55;;;;;;;5.21;100.00;101036.44;5045689;28;20052;-59
2024/01/31 07:01:56;;;;;;;0.40;0.40;;;;;;;5.17;100.00;101037.78;5027726;28;20059;-59
2024/01/31 07:04:23;;;;;;;0.40;0.40;;;;;;;5.19;100.00;101035.75;5025697;28;20400;-60
2024/01/31 07:06:53;;;;;;;0.40;0.40;;;;;;;5.12;100.00;101042.75;5025417;28;20041;-59
2024/01/31 07:09:20;;;;;;;0.40;0.40;;;;;;;5.11;100.00;101044.56;5045582;28;20304;-57
2024/01/31 07:11:54;;;;;;;0.30;0.30;;;;;;;5.22;100.00;101045.25;5046214;28;20045;-59
2024/01/31 07:14:22;;;;;;;0.40;0.40;;;;;;;5.15;100.00;101039.75;5044103;28;20045;-59
2024/01/31 07:16:52;;;;;;;0.40;0.40;;;;;;;5.13;100.00;101047.88;5040301;28;20060;-57
2024/01/31 07:19:19;;;;;;;0.40;0.40;;;;;;;5.22;100.00;101051.41;5042328;28;20045;-59
2024/01/31 07:21:48;;;;;;;0.50;0.50;;;;;;;5.24;100.00;101053.88;5028689;28;20041;-59
2024/01/31 07:24:18;;;;;;;0.45;0.45;;;;;;;5.29;100.00;101052.44;5009551;28;20495;-58
2024/01/31 07:26:48;;;;;;;0.30;0.30;;;;;;;5.44;100.00;101051.75;5025330;28;20069;-59
2024/01/31 07:29:17;;;;;;;0.40;0.40;;;;;;;5.44;100.00;101049.09;5044913;28;20056;-59
2024/01/31 07:31:44;;;;;;;0.30;0.30;;;;;;;5.54;100.00;101049.78;5042492;28;20037;-59
2024/01/31 07:34:12;;;;;;;0.50;0.50;;;;;;;5.61;100.00;101058.75;5027007;28;20133;-58
2024/01/31 07:36:40;;;;;;;0.40;0.40;;;;;;;5.63;100.00;101048.81;5041974;28;20491;-59
2024/01/31 07:39:07;;;;;;;0.40;0.40;;;;;;;5.63;99.35;101041.66;5027678;28;20049;-59
2024/01/31 07:41:36;;;;;;;0.40;0.40;;;;;;;5.57;100.00;101052.13;5027332;28;20156;-58
2024/01/31 07:44:04;;;;;;;0.40;0.40;;;;;;;5.43;100.00;101052.78;5028513;28;20431;-58
2024/01/31 07:46:33;;;;;;;0.40;0.40;;;;;;;5.34;100.00;101057.22;5039554;28;20413;-59
2024/01/31 07:49:00;;;;;;;0.40;0.40;;;;;;;5.30;100.00;101053.25;5028720;28;20052;-59
2024/01/31 07:51:28;;;;;;;0.20;0.20;;;;;;;5.26;100.00;101052.72;5044373;28;20041;-60
2024/01/31 07:53:58;;;;;;;0.40;0.40;;;;;;;5.34;100.00;101057.22;5043202;28;20529;-58
2024/01/31 07:56:26;;;;;;;0.38;0.38;;;;;;;5.39;100.00;101060.22;5020936;28;20415;-59
2024/01/31 07:58:53;;;;;;;0.40;0.40;;;;;;;5.10;100.00;101058.03;5022103;28;20045;-59
2024/01/31 08:01:21;;;;;;;0.40;0.40;;;;;;;5.22;100.00;101051.41;5042008;28;20175;-59
2024/01/31 08:03:51;;;;;;;0.30;0.30;;;;;;;5.31;100.00;101061.06;5042858;28;20102;-60
2024/01/31 08:06:18;;;;;;;;;;;;;;;5.25;100.00;101060.88;5043093;28;20044;-58
2024/01/31 08:08:45;;;;;;;0.40;0.40;;;;;;;5.32;100.00;101061.91;5029471;28;20368;-58
2024/01/31 08:11:17;;;;;;;0.40;0.40;;;;;;;5.19;100.00;101052.56;5022990;28;20049;-59
2024/01/31 08:13:44;;;;;;;0.30;0.30;;;;;;;5.25;100.00;101048.44;5041275;28;20526;-58
2024/01/31 08:16:12;;;;;;;0.43;0.43;;;;;;;5.32;100.00;101045.94;5027861;28;20053;-58
2024/01/31 08:18:39;;;;;;;0.50;0.50;;;;;;;5.44;100.00;101049.94;5043438;28;20033;-57
2024/01/31 08:21:10;;;;;;;0.43;0.43;;;;;;;5.40;100.00;101048.63;5022863;28;20045;-58
2024/01/31 08:23:38;;;;;;;0.40;0.40;;;;;;;5.31;100.00;101045.09;5023694;28;20045;-59
2024/01/31 08:26:06;;;;;;;0.47;0.47;;;;;;;5.33;100.00;101048.44;5043033;28;20149;-59
2024/01/31 08:28:33;;;;;;;0.40;0.40;;;;;;;5.30;100.00;101045.28;5025583;28;20495;-59
2024/01/31 08:31:03;;;;;;;0.50;0.50;;;;;;;5.37;100.00;101049.78;5045277;28;20053;-59
2024/01/31 08:33:31;;;;;;;0.50;0.50;;;;;;;5.47;100.00;101054.13;5024883;28;20102;-59
2024/01/31 08:35:58;;;;;;;0.50;0.50;;;;;;;5.46;100.00;101050.59;5042730;28;20049;-59
2024/01/31 08:38:29;;;;;;;0.40;0.40;;;;;;;5.62;100.00;101052.47;5036744;28;20559;-60
2024/01/31 08:40:56;;;;;;;0.40;0.40;;;;;;;5.75;100.00;101052.78;5030930;28;20040;-57
2024/01/31 08:43:23;;;;;;;0.40;0.40;;;;;;;5.60;100.00;101049.13;5042618;28;20037;-57
2024/01/31 08:45:52;;;;;;;0.40;0.40;;;;;;;5.45;100.00;101037.50;5042679;28;20068;-59
2024/01/31 08:48:19;;;;;;;0.30;0.30;;;;;;;5.59;100.00;101034.16;5039924;28;20136;-58
2024/01/31 08:50:46;;;;;;;0.50;0.50;;;;;;;5.54;100.00;101039.13;5043661;28;20053;-59
2024/01/31 08:53:22;;;;;;;0.45;0.45;;;;;;;5.36;100.00;101026.81;5028118;28;20546;-58
2024/01/31 08:55:53;;;;;;;0.45;0.45;;;;;;;5.56;100.00;101029.16;5041469;28;20331;-58
2024/01/31 08:58:20;;;;;;;0.40;0.40;;;;;;;5.62;100.00;101023.22;5041727;28;20322;-60
2024/01/31 09:00:47;;;;;;;0.35;0.35;;;;;;;5.69;100.00;101026.88;5045147;28;20040;-59
2024/01/31 09:03:14;;;;;;;0.30;0.30;;;;;;;5.76;100.00;101027.84;5026715;28;20053;-59
2024/01/31 09:05:44;;;;;;;0.40;0.40;;;;;;;5.81;100.00;101035.31;5023646;28;20049;-57
2024/01/31 09:08:11;;;;;;;0.38;0.38;;;;;;;5.71;100.00;101040.81;5041848;28;20049;-57
2024/01/31 09:10:38;;;;;;;0.40;0.40;;;;;;;5.75;100.00;101026.19;5042131;28;20094;-58
2024/01/31 09:13:07;;;;;;;0.30;0.30;;;;;;;5.62;100.00;101036.50;5039100;28;20036;-59
2024/01/31 09:15:34;;;;;;;0.40;0.40;;;;;;;5.62;100.00;101033.84;5037628;28;20103;-59
2024/01/31 09:18:09;;;;;;;0.40;0.40;;;;;;;5.57;100.00;101038.84;5045921;28;20049;-59
2024/01/31 09:20:37;;;;;;;0.30;0.30;;;;;;;5.81;100.00;101045.97;5035325;28;20055;-59
2024/01/31 09:23:07;;;;;;;0.30;0.30;;;;;;;5.59;100.00;101039.47;5044105;28;20127;-59
2024/01/31 09:25:35;;;;;;;0.40;0.40;;;;;;;5.78;100.00;101044.47;5038410;28;20151;-59
2024/01/31 09:28:02;;;;;;;0.40;0.40;;;;;;;5.86;100.00;101051.63;5021519;28;20400;-59
2024/01/31 09:30:31;;;;;;;0.35;0.35;;;;;;;6.00;100.00;101056.31;5028562;28;20068;-59
2024/01/31 09:32:59;;;;;;;0.35;0.35;;;;;;;5.96;100.00;101054.16;5041833;28;20106;-59
2024/01/31 09:35:26;;;;;;;0.30;0.30;;;;;;;5.75;100.00;101058.13;5043047;28;20468;-59
2024/01/31 09:37:54;;;;;;;0.40;0.40;;;;;;;5.75;100.00;101055.47;5036200;28;20055;-60
2024/01/31 09:40:23;;;;;;;0.40;0.40;;;;;;;5.87;100.00;101057.78;5044377;28;20545;-59
2024/01/31 09:42:51;;;;;;;0.30;0.30;;;;;;;5.99;100.00;101057.31;5041243;28;20059;-59
2024/01/31 09:45:18;;;;;;;0.32;0.32;;;;;;;6.05;100.00;101067.28;5036347;28;20052;-59
2024/01/31 09:47:47;;;;;;;0.40;0.40;;;;;;;5.79;100.00;101062.13;5017227;28;20128;-59
2024/01/31 09:50:15;;;;;;;0.30;0.30;;;;;;;5.83;100.00;101062.59;5037621;28;20107;-59
2024/01/31 09:52:42;;;;;;;0.40;0.40;;;;;;;6.00;100.00;101077.59;5039913;28;20038;-59
2024/01/31 09:55:10;;;;;;;0.30;0.30;;;;;;;6.06;100.00;101076.09;5024759;28;20051;-59
2024/01/31 09:57:38;;;;;;;0.32;0.32;;;;;;;6.02;100.00;101078.28;5040113;28;20290;-59
2024/01/31 10:00:06;;;;;;;0.40;0.40;;;;;;;6.03;100.00;101081.75;5042221;28;20102;-59
2024/01/31 10:02:39;;;;;;;0.50;0.50;;;;;;;6.04;100.00;101075.41;5041813;28;20044;-58
2024/01/31 10:05:08;;;;;;;0.40;0.40;;;;;;;5.82;100.00;101080.41;5023708;28;20052;-59
2024/01/31 10:07:38;;;;;;;0.32;0.32;;;;;;;6.15;100.00;101077.75;5040374;28;20570;-59
2024/01/31 10:10:07;;;;;;;0.40;0.40;;;;;;;5.98;100.00;101076.94;5024376;28;20052;-58
2024/01/31 10:12:35;;;;;;;0.40;0.40;;;;;;;6.13;100.00;101079.75;5040120;28;20049;-59
2024/01/31 10:15:08;;;;;;;0.40;0.40;;;;;;;6.25;100.00;101078.41;5008420;28;20152;-58
2024/01/31 10:17:38;;;;;;;0.30;0.30;;;;;;;6.35;98.54;101080.06;5041674;28;20041;-59
2024/01/31 10:20:19;;;;;;;0.30;0.30;;;;;;;6.38;97.21;101069.88;5001587;28;20045;-59
2024/01/31 10:22:47;;;;;;;0.40;0.40;;;;;;;6.26;92.36;101072.09;5042288;28;20589;-58
2024/01/31 10:25:18;;;;;;;0.30;0.30;;;;;;;6.25;93.87;101075.75;5041728;28;20051;-58
2024/01/31 10:27:45;;;;;;;;;;;;;;;6.37;91.71;101078.06;5042351;28;20080;-59
2024/01/31 10:30:13;;;;;;;0.38;0.38;;;;;;;6.42;91.38;101071.22;5041046;28;19960;-59
2024/01/31 10:32:41;;;;;;;0.30;0.30;;;;;;;6.48;89.66;101069.69;5013781;28;20056;-59
2024/01/31 10:35:09;;;;;;;0.40;0.40;;;;;;;6.50;89.92;101056.22;5041522;28;20124;-61
2024/01/31 10:37:38;;;;;;;0.40;0.40;;;;;;;6.49;90.59;101052.72;5037770;28;20048;-60
2024/01/31 10:40:07;;;;;;;0.30;0.30;;;;;;;6.63;90.36;101054.66;5017640;28;20050;-58
2024/01/31 10:42:34;;;;;;;0.40;0.40;;;;;;;6.66;89.88;101051.69;5021094;28;20091;-58
2024/01/31 10:45:01;;;;;;;0.40;0.40;;;;;;;6.40;89.90;101054.56;5010356;28;20053;-59
2024/01/31 10:47:29;;;;;;;0.30;0.30;;;;;;;6.63;91.28;101056.50;5001587;28;20045;-57
2024/01/31 10:49:56;;;;;;;0.30;0.30;;;;;;;6.52;94.88;101049.72;4999194;28;20046;-59
2024/01/31 10:52:25;;;;;;;0.28;0.28;;;;;;;6.54;94.07;101055.72;5000034;28;20068;-59
2024/01/31 10:54:56;;;;;;;0.40;0.40;;;;;;;6.55;94.70;101053.88;5001880;28;20057;-58
2024/01/31 10:57:23;;;;;;;0.32;0.32;;;;;;;6.70;95.42;101041.50;5000049;28;20049;-60
2024/01/31 10:59:50;;;;;;;0.30;0.30;;;;;;;6.73;94.38;101032.31;4998699;28;20048;-61
2024/01/31 11:02:18;;;;;;;0.40;0.40;;;;;;;6.67;90.16;101032.00;4992002;28;20052;-61
2024/01/31 11:04:46;;;;;;;0.38;0.38;;;;;;;6.76;86.02;101023.97;5000294;28;20054;-59
2024/01/31 11:07:20;;;;;;;0.30;0.30;;;;;;;6.89;85.33;101016.28;5001227;28;20038;-59
2024/01/31 11:09:47;;;;;;;0.30;0.30;;;;;;;6.81;87.31;101014.44;5001332;28;20096;-58
2024/01/31 11:12:17;;;;;;;0.30;0.30;;;;;;;6.91;86.42;101014.22;5001904;28;20487;-58
2024/01/31 11:14:45;;;;;;;0.20;0.20;;;;;;;6.82;85.81;101001.97;4999206;28;20512;-59
2024/01/31 11:17:13;;;;;;;0.32;0.32;;;;;;;6.87;82.16;101003.09;5000308;28;20034;-59
2024/01/31 11:19:43;;;;;;;0.30;0.30;;;;;;;6.97;81.83;100994.88;4999480;28;20073;-59
2024/01/31 11:22:10;;;;;;;0.30;0.30;;;;;;;7.05;79.88;101004.66;5017139;28;20045;-59
2024/01/31 11:24:40;;;;;;;0.40;0.40;;;;;;;7.01;80.21;101000.69;4983001;28;20054;-59
2024/01/31 11:27:10;;;;;;;0.30;0.30;;;;;;;6.91;80.20;101007.09;4994479;28;20135;-58
2024/01/31 11:29:39;;;;;;;0.40;0.40;;;;;;;7.00;80.39;101002.53;5016946;28;20061;-58
2024/01/31 11:32:09;;;;;;;0.30;0.30;;;;;;;7.13;80.49;100997.44;4997748;28;20050;-58
2024/01/31 11:34:36;;;;;;;0.30;0.30;;;;;;;7.07;81.19;100984.00;5003002;28;20046;-59